sensor_id;sensor_type;location;lat;lon;timestamp;temperature;humidity
10644;DHT22;5370;50.132;8.626;2023-07-20T00:02:19;21.40;48.80
10644;DHT22;5370;50.132;8.626;2023-07-20T00:04:45;21.40;48.90
10644;DHT22;5370;50.132;8.626;2023-07-20T00:07:10;21.30;48.90
10644;DHT22;5370;50.132;8.626;2023-07-20T00:09:36;21.30;49.00
10644;DHT22;5370;50.132;8.626;2023-07-20T00:12:01;21.30;49.10
10644;DHT22;5370;50.132;8.626;2023-07-20T00:14:27;21.20;49.00
10644;DHT22;5370;50.132;8.626;2023-07-20T00:16:54;21.10;49.10
10644;DHT22;5370;50.132;8.626;2023-07-20T00:19:26;21.10;49.30
10644;DHT22;5370;50.132;8.626;2023-07-20T00:21:53;21.00;49.50
10644;DHT22;5370;50.132;8.626;2023-07-20T00:24:19;21.00;49.60
10644;DHT22;5370;50.132;8.626;2023-07-20T00:26:45;20.90;49.70
10644;DHT22;5370;50.132;8.626;2023-07-20T00:29:10;20.90;49.90
10644;DHT22;5370;50.132;8.626;2023-07-20T00:31:36;20.80;50.00
10644;DHT22;5370;50.132;8.626;2023-07-20T00:34:03;20.80;50.60
10644;DHT22;5370;50.132;8.626;2023-07-20T00:36:29;20.80;50.10
10644;DHT22;5370;50.132;8.626;2023-07-20T00:38:54;20.90;50.30
10644;DHT22;5370;50.132;8.626;2023-07-20T00:41:20;20.90;50.30
10644;DHT22;5370;50.132;8.626;2023-07-20T00:43:46;20.90;50.20
10644;DHT22;5370;50.132;8.626;2023-07-20T00:46:11;20.90;50.20
10644;DHT22;5370;50.132;8.626;2023-07-20T00:48:37;20.90;50.30
10644;DHT22;5370;50.132;8.626;2023-07-20T00:51:03;20.90;50.30
10644;DHT22;5370;50.132;8.626;2023-07-20T00:53:29;20.90;50.40
10644;DHT22;5370;50.132;8.626;2023-07-20T00:55:55;20.80;50.60
10644;DHT22;5370;50.132;8.626;2023-07-20T00:58:21;20.70;50.70
10644;DHT22;5370;50.132;8.626;2023-07-20T01:00:46;20.60;50.80
10644;DHT22;5370;50.132;8.626;2023-07-20T01:03:12;20.50;50.90
10644;DHT22;5370;50.132;8.626;2023-07-20T01:05:54;20.40;51.00
10644;DHT22;5370;50.132;8.626;2023-07-20T01:11:22;20.20;51.50
10644;DHT22;5370;50.132;8.626;2023-07-20T01:13:50;20.20;51.80
10644;DHT22;5370;50.132;8.626;2023-07-20T01:16:15;20.10;52.00
10644;DHT22;5370;50.132;8.626;2023-07-20T01:18:41;20.00;52.30
10644;DHT22;5370;50.132;8.626;2023-07-20T01:21:12;19.90;52.50
10644;DHT22;5370;50.132;8.626;2023-07-20T01:23:56;19.90;52.70
10644;DHT22;5370;50.132;8.626;2023-07-20T01:26:46;19.80;52.90
10644;DHT22;5370;50.132;8.626;2023-07-20T01:32:15;19.80;53.20
10644;DHT22;5370;50.132;8.626;2023-07-20T01:34:42;19.70;53.20
10644;DHT22;5370;50.132;8.626;2023-07-20T01:37:09;19.70;53.40
10644;DHT22;5370;50.132;8.626;2023-07-20T01:39:37;19.70;53.50
10644;DHT22;5370;50.132;8.626;2023-07-20T01:42:03;19.60;53.60
10644;DHT22;5370;50.132;8.626;2023-07-20T01:44:29;19.50;53.70
10644;DHT22;5370;50.132;8.626;2023-07-20T01:46:55;19.50;54.40
10644;DHT22;5370;50.132;8.626;2023-07-20T01:49:20;19.50;54.00
10644;DHT22;5370;50.132;8.626;2023-07-20T01:51:46;19.40;54.20
10644;DHT22;5370;50.132;8.626;2023-07-20T01:54:11;19.40;54.30
10644;DHT22;5370;50.132;8.626;2023-07-20T01:56:37;19.40;54.40
10644;DHT22;5370;50.132;8.626;2023-07-20T01:59:03;19.30;54.50
10644;DHT22;5370;50.132;8.626;2023-07-20T02:01:28;19.30;54.70
10644;DHT22;5370;50.132;8.626;2023-07-20T02:03:54;19.30;54.90
10644;DHT22;5370;50.132;8.626;2023-07-20T02:06:20;19.30;55.00
10644;DHT22;5370;50.132;8.626;2023-07-20T02:08:45;19.30;55.00
10644;DHT22;5370;50.132;8.626;2023-07-20T02:11:11;19.30;55.10
10644;DHT22;5370;50.132;8.626;2023-07-20T02:13:36;19.30;55.20
10644;DHT22;5370;50.132;8.626;2023-07-20T02:16:02;19.30;55.20
10644;DHT22;5370;50.132;8.626;2023-07-20T02:18:27;19.30;55.30
10644;DHT22;5370;50.132;8.626;2023-07-20T02:20:53;19.40;55.40
10644;DHT22;5370;50.132;8.626;2023-07-20T02:23:19;19.40;55.40
10644;DHT22;5370;50.132;8.626;2023-07-20T02:25:45;19.50;55.30
10644;DHT22;5370;50.132;8.626;2023-07-20T02:28:13;19.50;55.20
10644;DHT22;5370;50.132;8.626;2023-07-20T02:30:39;19.40;55.10
10644;DHT22;5370;50.132;8.626;2023-07-20T02:33:05;19.40;55.10
10644;DHT22;5370;50.132;8.626;2023-07-20T02:35:32;19.40;55.20
10644;DHT22;5370;50.132;8.626;2023-07-20T02:37:57;19.30;55.20
10644;DHT22;5370;50.132;8.626;2023-07-20T02:40:23;19.30;55.40
10644;DHT22;5370;50.132;8.626;2023-07-20T02:42:49;19.30;55.50
10644;DHT22;5370;50.132;8.626;2023-07-20T02:45:14;19.30;55.40
10644;DHT22;5370;50.132;8.626;2023-07-20T02:47:40;19.30;55.40
10644;DHT22;5370;50.132;8.626;2023-07-20T02:50:07;19.20;55.50
10644;DHT22;5370;50.132;8.626;2023-07-20T02:52:33;19.20;55.60
10644;DHT22;5370;50.132;8.626;2023-07-20T02:54:58;19.30;55.70
10644;DHT22;5370;50.132;8.626;2023-07-20T02:57:24;19.30;55.60
10644;DHT22;5370;50.132;8.626;2023-07-20T02:59:49;19.30;55.70
10644;DHT22;5370;50.132;8.626;2023-07-20T03:02:15;19.30;55.70
10644;DHT22;5370;50.132;8.626;2023-07-20T03:04:40;19.40;55.70
10644;DHT22;5370;50.132;8.626;2023-07-20T03:07:06;19.40;55.60
10644;DHT22;5370;50.132;8.626;2023-07-20T03:09:33;19.60;55.60
10644;DHT22;5370;50.132;8.626;2023-07-20T03:11:58;19.60;55.40
10644;DHT22;5370;50.132;8.626;2023-07-20T03:14:24;19.70;55.10
10644;DHT22;5370;50.132;8.626;2023-07-20T03:16:50;19.80;55.00
10644;DHT22;5370;50.132;8.626;2023-07-20T03:19:15;19.90;55.00
10644;DHT22;5370;50.132;8.626;2023-07-20T03:21:41;19.90;54.70
10644;DHT22;5370;50.132;8.626;2023-07-20T03:24:09;20.00;54.60
10644;DHT22;5370;50.132;8.626;2023-07-20T03:26:36;19.90;54.40
10644;DHT22;5370;50.132;8.626;2023-07-20T03:29:03;19.90;54.60
10644;DHT22;5370;50.132;8.626;2023-07-20T03:31:29;19.90;54.60
10644;DHT22;5370;50.132;8.626;2023-07-20T03:33:54;19.90;54.60
10644;DHT22;5370;50.132;8.626;2023-07-20T03:36:20;19.90;54.60
10644;DHT22;5370;50.132;8.626;2023-07-20T03:38:45;19.90;54.70
10644;DHT22;5370;50.132;8.626;2023-07-20T03:41:11;19.90;54.70
10644;DHT22;5370;50.132;8.626;2023-07-20T03:43:37;19.90;54.60
10644;DHT22;5370;50.132;8.626;2023-07-20T03:46:02;20.00;54.60
10644;DHT22;5370;50.132;8.626;2023-07-20T03:48:32;20.00;54.60
10644;DHT22;5370;50.132;8.626;2023-07-20T03:50:58;20.00;54.60
10644;DHT22;5370;50.132;8.626;2023-07-20T03:53:24;20.00;54.50
10644;DHT22;5370;50.132;8.626;2023-07-20T03:55:51;20.00;54.50
10644;DHT22;5370;50.132;8.626;2023-07-20T03:58:17;19.90;54.50
10644;DHT22;5370;50.132;8.626;2023-07-20T04:00:48;19.90;54.60
10644;DHT22;5370;50.132;8.626;2023-07-20T04:03:15;19.90;54.70
10644;DHT22;5370;50.132;8.626;2023-07-20T04:05:42;19.80;54.80
10644;DHT22;5370;50.132;8.626;2023-07-20T04:08:07;19.80;54.80
10644;DHT22;5370;50.132;8.626;2023-07-20T04:10:33;19.80;54.90
10644;DHT22;5370;50.132;8.626;2023-07-20T04:12:59;19.70;55.00
10644;DHT22;5370;50.132;8.626;2023-07-20T04:15:25;19.80;55.20
10644;DHT22;5370;50.132;8.626;2023-07-20T04:17:50;19.70;55.20
10644;DHT22;5370;50.132;8.626;2023-07-20T04:20:16;19.70;55.20
10644;DHT22;5370;50.132;8.626;2023-07-20T04:22:43;19.70;55.20
10644;DHT22;5370;50.132;8.626;2023-07-20T04:25:09;19.70;55.30
10644;DHT22;5370;50.132;8.626;2023-07-20T04:27:35;19.70;55.40
10644;DHT22;5370;50.132;8.626;2023-07-20T04:30:01;19.70;55.40
10644;DHT22;5370;50.132;8.626;2023-07-20T04:32:27;19.70;55.40
10644;DHT22;5370;50.132;8.626;2023-07-20T04:34:53;19.70;55.50
10644;DHT22;5370;50.132;8.626;2023-07-20T04:37:18;19.60;55.60
10644;DHT22;5370;50.132;8.626;2023-07-20T04:39:44;19.60;55.60
10644;DHT22;5370;50.132;8.626;2023-07-20T04:42:09;19.60;55.70
10644;DHT22;5370;50.132;8.626;2023-07-20T04:44:35;19.60;56.30
10644;DHT22;5370;50.132;8.626;2023-07-20T04:47:01;19.70;55.70
10644;DHT22;5370;50.132;8.626;2023-07-20T04:49:26;19.70;55.70
10644;DHT22;5370;50.132;8.626;2023-07-20T04:51:52;19.80;55.60
10644;DHT22;5370;50.132;8.626;2023-07-20T04:54:17;19.90;55.60
10644;DHT22;5370;50.132;8.626;2023-07-20T04:56:44;19.90;55.40
10644;DHT22;5370;50.132;8.626;2023-07-20T04:59:10;20.00;55.30
10644;DHT22;5370;50.132;8.626;2023-07-20T05:01:35;20.00;55.10
10644;DHT22;5370;50.132;8.626;2023-07-20T05:04:01;20.10;55.00
10644;DHT22;5370;50.132;8.626;2023-07-20T05:06:27;20.00;54.70
10644;DHT22;5370;50.132;8.626;2023-07-20T05:08:52;20.00;54.70
10644;DHT22;5370;50.132;8.626;2023-07-20T05:11:18;20.00;54.70
10644;DHT22;5370;50.132;8.626;2023-07-20T05:13:44;20.00;54.80
10644;DHT22;5370;50.132;8.626;2023-07-20T05:16:09;20.00;54.70
10644;DHT22;5370;50.132;8.626;2023-07-20T05:18:35;20.00;54.70
10644;DHT22;5370;50.132;8.626;2023-07-20T05:21:00;20.00;54.70
10644;DHT22;5370;50.132;8.626;2023-07-20T05:23:26;20.00;54.70
10644;DHT22;5370;50.132;8.626;2023-07-20T05:25:58;20.10;54.90
10644;DHT22;5370;50.132;8.626;2023-07-20T05:28:25;20.10;54.70
10644;DHT22;5370;50.132;8.626;2023-07-20T05:30:51;20.10;54.60
10644;DHT22;5370;50.132;8.626;2023-07-20T05:33:18;20.20;54.60
10644;DHT22;5370;50.132;8.626;2023-07-20T05:35:44;20.30;54.70
10644;DHT22;5370;50.132;8.626;2023-07-20T05:38:10;20.40;54.50
10644;DHT22;5370;50.132;8.626;2023-07-20T05:40:40;20.60;54.50
10644;DHT22;5370;50.132;8.626;2023-07-20T05:43:07;20.80;54.20
10644;DHT22;5370;50.132;8.626;2023-07-20T05:45:32;21.10;54.00
10644;DHT22;5370;50.132;8.626;2023-07-20T05:47:58;21.70;53.80
10644;DHT22;5370;50.132;8.626;2023-07-20T05:50:24;22.60;53.10
10644;DHT22;5370;50.132;8.626;2023-07-20T05:52:52;23.80;52.00
10644;DHT22;5370;50.132;8.626;2023-07-20T05:55:18;25.10;50.30
10644;DHT22;5370;50.132;8.626;2023-07-20T05:57:43;26.00;48.10
10644;DHT22;5370;50.132;8.626;2023-07-20T06:00:09;26.50;46.30
10644;DHT22;5370;50.132;8.626;2023-07-20T06:02:35;26.90;45.30
10644;DHT22;5370;50.132;8.626;2023-07-20T06:05:01;27.20;44.20
10644;DHT22;5370;50.132;8.626;2023-07-20T06:07:26;27.60;43.50
10644;DHT22;5370;50.132;8.626;2023-07-20T06:09:52;28.30;42.70
10644;DHT22;5370;50.132;8.626;2023-07-20T06:12:18;29.10;41.50
10644;DHT22;5370;50.132;8.626;2023-07-20T06:14:43;29.70;40.20
10644;DHT22;5370;50.132;8.626;2023-07-20T06:17:09;30.20;39.30
10644;DHT22;5370;50.132;8.626;2023-07-20T06:19:35;30.50;38.70
10644;DHT22;5370;50.132;8.626;2023-07-20T06:22:01;30.70;37.70
10644;DHT22;5370;50.132;8.626;2023-07-20T06:24:26;30.90;36.90
10644;DHT22;5370;50.132;8.626;2023-07-20T06:26:52;31.20;36.30
10644;DHT22;5370;50.132;8.626;2023-07-20T06:29:17;31.30;35.50
10644;DHT22;5370;50.132;8.626;2023-07-20T06:31:43;31.20;35.10
10644;DHT22;5370;50.132;8.626;2023-07-20T06:34:08;30.90;34.90
10644;DHT22;5370;50.132;8.626;2023-07-20T06:36:34;30.50;35.40
10644;DHT22;5370;50.132;8.626;2023-07-20T06:39:00;30.60;35.60
10644;DHT22;5370;50.132;8.626;2023-07-20T06:41:26;30.80;35.40
10644;DHT22;5370;50.132;8.626;2023-07-20T06:43:51;31.70;34.70
10644;DHT22;5370;50.132;8.626;2023-07-20T06:46:18;32.60;33.60
10644;DHT22;5370;50.132;8.626;2023-07-20T06:48:43;33.40;32.60
10644;DHT22;5370;50.132;8.626;2023-07-20T06:51:09;34.00;31.60
10644;DHT22;5370;50.132;8.626;2023-07-20T06:53:34;34.30;30.60
10644;DHT22;5370;50.132;8.626;2023-07-20T06:56:00;34.40;30.10
10644;DHT22;5370;50.132;8.626;2023-07-20T06:58:25;34.60;30.00
10644;DHT22;5370;50.132;8.626;2023-07-20T07:00:51;34.80;29.50
10644;DHT22;5370;50.132;8.626;2023-07-20T07:03:17;34.50;29.40
10644;DHT22;5370;50.132;8.626;2023-07-20T07:05:43;34.30;29.80
10644;DHT22;5370;50.132;8.626;2023-07-20T07:08:10;34.50;29.60
10644;DHT22;5370;50.132;8.626;2023-07-20T07:10:36;34.70;29.30
10644;DHT22;5370;50.132;8.626;2023-07-20T07:13:02;34.50;29.20
10644;DHT22;5370;50.132;8.626;2023-07-20T07:15:28;34.20;29.40
10644;DHT22;5370;50.132;8.626;2023-07-20T07:17:54;34.30;29.80
10644;DHT22;5370;50.132;8.626;2023-07-20T07:20:20;34.50;29.20
10644;DHT22;5370;50.132;8.626;2023-07-20T07:22:47;34.40;29.20
10644;DHT22;5370;50.132;8.626;2023-07-20T07:25:13;34.10;29.40
10644;DHT22;5370;50.132;8.626;2023-07-20T07:27:38;34.50;29.60
10644;DHT22;5370;50.132;8.626;2023-07-20T07:30:05;35.20;29.20
10644;DHT22;5370;50.132;8.626;2023-07-20T07:32:30;36.10;28.50
10644;DHT22;5370;50.132;8.626;2023-07-20T07:34:56;36.80;27.70
10644;DHT22;5370;50.132;8.626;2023-07-20T07:37:24;37.30;27.10
10644;DHT22;5370;50.132;8.626;2023-07-20T07:39:49;37.80;26.70
10644;DHT22;5370;50.132;8.626;2023-07-20T07:42:15;38.20;26.00
10644;DHT22;5370;50.132;8.626;2023-07-20T07:44:40;38.60;25.60
10644;DHT22;5370;50.132;8.626;2023-07-20T07:47:06;38.70;25.20
10644;DHT22;5370;50.132;8.626;2023-07-20T07:49:32;38.30;25.10
10644;DHT22;5370;50.132;8.626;2023-07-20T07:51:57;37.40;25.30
10644;DHT22;5370;50.132;8.626;2023-07-20T07:54:23;36.70;25.90
10644;DHT22;5370;50.132;8.626;2023-07-20T07:56:48;35.80;26.30
10644;DHT22;5370;50.132;8.626;2023-07-20T07:59:14;35.10;27.10
10644;DHT22;5370;50.132;8.626;2023-07-20T08:01:40;34.90;27.70
10644;DHT22;5370;50.132;8.626;2023-07-20T08:04:06;35.20;27.80
10644;DHT22;5370;50.132;8.626;2023-07-20T08:06:31;36.10;27.30
10644;DHT22;5370;50.132;8.626;2023-07-20T08:08:57;37.40;26.60
10644;DHT22;5370;50.132;8.626;2023-07-20T08:11:23;39.10;25.30
10644;DHT22;5370;50.132;8.626;2023-07-20T08:13:49;40.60;23.90
10644;DHT22;5370;50.132;8.626;2023-07-20T08:16:14;41.30;23.00
10644;DHT22;5370;50.132;8.626;2023-07-20T08:18:40;41.90;22.60
10644;DHT22;5370;50.132;8.626;2023-07-20T08:21:05;42.50;21.90
10644;DHT22;5370;50.132;8.626;2023-07-20T08:23:31;43.20;21.30
10644;DHT22;5370;50.132;8.626;2023-07-20T08:25:56;43.80;20.60
10644;DHT22;5370;50.132;8.626;2023-07-20T08:28:22;44.00;20.10
10644;DHT22;5370;50.132;8.626;2023-07-20T08:30:49;43.30;20.40
10644;DHT22;5370;50.132;8.626;2023-07-20T08:33:18;43.30;20.60
10644;DHT22;5370;50.132;8.626;2023-07-20T08:35:47;43.20;20.40
10644;DHT22;5370;50.132;8.626;2023-07-20T08:38:13;43.00;20.50
10644;DHT22;5370;50.132;8.626;2023-07-20T08:40:44;43.20;20.50
10644;DHT22;5370;50.132;8.626;2023-07-20T08:43:14;42.80;20.50
10644;DHT22;5370;50.132;8.626;2023-07-20T08:45:42;42.40;20.80
10644;DHT22;5370;50.132;8.626;2023-07-20T08:48:08;41.80;21.10
10644;DHT22;5370;50.132;8.626;2023-07-20T08:50:35;41.00;21.50
10644;DHT22;5370;50.132;8.626;2023-07-20T08:53:01;39.90;22.00
10644;DHT22;5370;50.132;8.626;2023-07-20T08:55:28;38.80;22.90
10644;DHT22;5370;50.132;8.626;2023-07-20T08:57:57;37.60;23.90
10644;DHT22;5370;50.132;8.626;2023-07-20T09:00:24;36.60;24.80
10644;DHT22;5370;50.132;8.626;2023-07-20T09:02:51;35.90;25.60
10644;DHT22;5370;50.132;8.626;2023-07-20T09:05:18;35.30;26.70
10644;DHT22;5370;50.132;8.626;2023-07-20T09:07:44;34.70;26.80
10644;DHT22;5370;50.132;8.626;2023-07-20T09:10:10;34.10;27.30
10644;DHT22;5370;50.132;8.626;2023-07-20T09:12:37;33.50;27.70
10644;DHT22;5370;50.132;8.626;2023-07-20T09:15:04;32.80;28.30
10644;DHT22;5370;50.132;8.626;2023-07-20T09:17:30;32.10;29.00
10644;DHT22;5370;50.132;8.626;2023-07-20T09:19:55;31.40;29.70
10644;DHT22;5370;50.132;8.626;2023-07-20T09:22:21;30.80;30.30
10644;DHT22;5370;50.132;8.626;2023-07-20T09:24:46;30.40;31.10
10644;DHT22;5370;50.132;8.626;2023-07-20T09:27:12;30.10;31.60
10644;DHT22;5370;50.132;8.626;2023-07-20T09:29:51;29.80;32.10
10644;DHT22;5370;50.132;8.626;2023-07-20T09:32:21;29.50;32.60
10644;DHT22;5370;50.132;8.626;2023-07-20T09:34:47;29.10;33.00
10644;DHT22;5370;50.132;8.626;2023-07-20T09:37:12;28.90;33.30
10644;DHT22;5370;50.132;8.626;2023-07-20T09:39:45;28.50;33.80
10644;DHT22;5370;50.132;8.626;2023-07-20T09:42:13;28.20;34.50
10644;DHT22;5370;50.132;8.626;2023-07-20T09:44:39;27.90;35.00
10644;DHT22;5370;50.132;8.626;2023-07-20T09:47:06;27.70;35.40
10644;DHT22;5370;50.132;8.626;2023-07-20T09:49:32;27.60;35.80
10644;DHT22;5370;50.132;8.626;2023-07-20T09:51:58;27.50;36.30
10644;DHT22;5370;50.132;8.626;2023-07-20T09:54:26;27.30;36.50
10644;DHT22;5370;50.132;8.626;2023-07-20T09:56:54;27.30;37.00
10644;DHT22;5370;50.132;8.626;2023-07-20T09:59:19;27.20;37.30
10644;DHT22;5370;50.132;8.626;2023-07-20T10:01:46;27.30;37.60
10644;DHT22;5370;50.132;8.626;2023-07-20T10:04:13;27.50;37.60
10644;DHT22;5370;50.132;8.626;2023-07-20T10:06:42;27.60;37.60
10644;DHT22;5370;50.132;8.626;2023-07-20T10:09:10;27.80;37.50
10644;DHT22;5370;50.132;8.626;2023-07-20T10:11:36;27.90;37.00
10644;DHT22;5370;50.132;8.626;2023-07-20T10:14:04;28.00;36.80
10644;DHT22;5370;50.132;8.626;2023-07-20T10:16:39;28.00;36.60
10644;DHT22;5370;50.132;8.626;2023-07-20T10:19:38;27.90;36.70
10644;DHT22;5370;50.132;8.626;2023-07-20T10:22:19;27.80;36.70
10644;DHT22;5370;50.132;8.626;2023-07-20T10:24:48;27.70;36.60
10644;DHT22;5370;50.132;8.626;2023-07-20T10:27:14;27.60;36.60
10644;DHT22;5370;50.132;8.626;2023-07-20T10:29:41;27.60;36.80
10644;DHT22;5370;50.132;8.626;2023-07-20T10:32:08;27.50;37.00
10644;DHT22;5370;50.132;8.626;2023-07-20T10:34:34;27.40;37.10
10644;DHT22;5370;50.132;8.626;2023-07-20T10:37:00;27.40;37.30
10644;DHT22;5370;50.132;8.626;2023-07-20T10:39:31;27.40;37.30
10644;DHT22;5370;50.132;8.626;2023-07-20T10:42:06;27.40;37.30
10644;DHT22;5370;50.132;8.626;2023-07-20T10:44:33;27.50;37.40
10644;DHT22;5370;50.132;8.626;2023-07-20T10:47:03;27.40;37.20
10644;DHT22;5370;50.132;8.626;2023-07-20T10:49:34;27.40;37.30
10644;DHT22;5370;50.132;8.626;2023-07-20T10:52:04;27.30;37.40
10644;DHT22;5370;50.132;8.626;2023-07-20T10:57:28;27.10;37.60
10644;DHT22;5370;50.132;8.626;2023-07-20T11:00:10;27.20;37.70
10644;DHT22;5370;50.132;8.626;2023-07-20T11:02:44;27.20;37.70
10644;DHT22;5370;50.132;8.626;2023-07-20T11:05:32;27.40;37.60
10644;DHT22;5370;50.132;8.626;2023-07-20T11:08:00;27.50;37.70
10644;DHT22;5370;50.132;8.626;2023-07-20T11:10:25;27.70;37.30
10644;DHT22;5370;50.132;8.626;2023-07-20T11:15:46;27.80;36.40
10644;DHT22;5370;50.132;8.626;2023-07-20T11:18:12;27.70;36.60
10644;DHT22;5370;50.132;8.626;2023-07-20T11:20:38;27.60;36.60
10644;DHT22;5370;50.132;8.626;2023-07-20T11:23:04;27.60;36.90
10644;DHT22;5370;50.132;8.626;2023-07-20T11:25:40;27.60;36.90
10644;DHT22;5370;50.132;8.626;2023-07-20T11:28:09;27.60;37.00
10644;DHT22;5370;50.132;8.626;2023-07-20T11:30:37;27.60;36.80
10644;DHT22;5370;50.132;8.626;2023-07-20T11:33:03;27.70;36.60
10644;DHT22;5370;50.132;8.626;2023-07-20T11:35:29;27.70;37.10
10644;DHT22;5370;50.132;8.626;2023-07-20T11:37:55;27.70;36.60
10644;DHT22;5370;50.132;8.626;2023-07-20T11:40:22;27.60;36.60
10644;DHT22;5370;50.132;8.626;2023-07-20T11:42:48;27.60;36.60
10644;DHT22;5370;50.132;8.626;2023-07-20T11:45:19;27.60;36.60
10644;DHT22;5370;50.132;8.626;2023-07-20T11:47:44;27.60;36.40
10644;DHT22;5370;50.132;8.626;2023-07-20T11:50:10;27.60;36.30
10644;DHT22;5370;50.132;8.626;2023-07-20T11:52:37;27.60;36.40
10644;DHT22;5370;50.132;8.626;2023-07-20T11:55:03;27.60;36.40
10644;DHT22;5370;50.132;8.626;2023-07-20T11:57:29;27.50;36.40
10644;DHT22;5370;50.132;8.626;2023-07-20T12:00:03;27.50;36.60
10644;DHT22;5370;50.132;8.626;2023-07-20T12:02:37;27.50;36.50
10644;DHT22;5370;50.132;8.626;2023-07-20T12:05:04;27.50;36.50
10644;DHT22;5370;50.132;8.626;2023-07-20T12:07:35;27.50;36.50
10644;DHT22;5370;50.132;8.626;2023-07-20T12:10:10;27.60;36.60
10644;DHT22;5370;50.132;8.626;2023-07-20T12:12:40;27.60;36.70
10644;DHT22;5370;50.132;8.626;2023-07-20T12:17:43;28.10;36.20
10644;DHT22;5370;50.132;8.626;2023-07-20T12:20:09;28.30;35.90
10644;DHT22;5370;50.132;8.626;2023-07-20T12:22:43;28.50;35.40
10644;DHT22;5370;50.132;8.626;2023-07-20T12:25:09;28.60;35.20
10644;DHT22;5370;50.132;8.626;2023-07-20T12:27:37;28.70;35.20
10644;DHT22;5370;50.132;8.626;2023-07-20T12:30:05;28.80;34.50
10644;DHT22;5370;50.132;8.626;2023-07-20T12:32:31;28.70;34.50
10644;DHT22;5370;50.132;8.626;2023-07-20T12:34:56;28.80;34.10
10644;DHT22;5370;50.132;8.626;2023-07-20T12:37:22;28.90;34.10
10644;DHT22;5370;50.132;8.626;2023-07-20T12:39:48;28.90;34.00
10644;DHT22;5370;50.132;8.626;2023-07-20T12:42:13;29.00;34.10
10644;DHT22;5370;50.132;8.626;2023-07-20T12:44:41;29.00;34.00
10644;DHT22;5370;50.132;8.626;2023-07-20T12:47:07;29.10;34.10
10644;DHT22;5370;50.132;8.626;2023-07-20T12:49:33;29.30;33.30
10644;DHT22;5370;50.132;8.626;2023-07-20T12:51:58;29.30;32.90
10644;DHT22;5370;50.132;8.626;2023-07-20T12:54:24;29.30;32.90
10644;DHT22;5370;50.132;8.626;2023-07-20T12:56:49;29.30;32.60
10644;DHT22;5370;50.132;8.626;2023-07-20T12:59:15;29.30;32.70
10644;DHT22;5370;50.132;8.626;2023-07-20T13:01:40;29.20;32.50
10644;DHT22;5370;50.132;8.626;2023-07-20T13:04:07;29.10;32.80
10644;DHT22;5370;50.132;8.626;2023-07-20T13:06:34;29.20;33.00
10644;DHT22;5370;50.132;8.626;2023-07-20T13:09:00;29.30;32.80
10644;DHT22;5370;50.132;8.626;2023-07-20T13:11:26;29.60;32.70
10644;DHT22;5370;50.132;8.626;2023-07-20T13:13:51;29.80;32.30
10644;DHT22;5370;50.132;8.626;2023-07-20T13:16:17;29.90;31.90
10644;DHT22;5370;50.132;8.626;2023-07-20T13:18:42;30.00;31.70
10644;DHT22;5370;50.132;8.626;2023-07-20T13:21:08;29.80;31.40
10644;DHT22;5370;50.132;8.626;2023-07-20T13:23:36;29.70;31.30
10644;DHT22;5370;50.132;8.626;2023-07-20T13:26:04;29.70;31.10
10644;DHT22;5370;50.132;8.626;2023-07-20T13:28:29;29.70;31.00
10644;DHT22;5370;50.132;8.626;2023-07-20T13:30:55;29.80;30.90
10644;DHT22;5370;50.132;8.626;2023-07-20T13:33:21;30.00;30.80
10644;DHT22;5370;50.132;8.626;2023-07-20T13:35:46;30.00;30.60
10644;DHT22;5370;50.132;8.626;2023-07-20T13:38:12;30.10;30.50
10644;DHT22;5370;50.132;8.626;2023-07-20T13:40:38;30.10;30.30
10644;DHT22;5370;50.132;8.626;2023-07-20T13:43:03;30.20;30.20
10644;DHT22;5370;50.132;8.626;2023-07-20T13:45:29;30.00;30.00
10644;DHT22;5370;50.132;8.626;2023-07-20T13:47:54;29.80;30.00
10644;DHT22;5370;50.132;8.626;2023-07-20T13:50:20;29.60;30.20
10644;DHT22;5370;50.132;8.626;2023-07-20T13:52:45;29.50;30.50
10644;DHT22;5370;50.132;8.626;2023-07-20T13:55:11;29.40;30.70
10644;DHT22;5370;50.132;8.626;2023-07-20T13:57:36;29.30;30.40
10644;DHT22;5370;50.132;8.626;2023-07-20T14:00:03;29.20;30.10
10644;DHT22;5370;50.132;8.626;2023-07-20T14:02:29;29.10;30.00
10644;DHT22;5370;50.132;8.626;2023-07-20T14:04:55;29.00;30.20
10644;DHT22;5370;50.132;8.626;2023-07-20T14:07:21;29.00;30.10
10644;DHT22;5370;50.132;8.626;2023-07-20T14:09:47;29.00;30.00
10644;DHT22;5370;50.132;8.626;2023-07-20T14:12:12;28.90;30.00
10644;DHT22;5370;50.132;8.626;2023-07-20T14:14:40;28.90;30.00
10644;DHT22;5370;50.132;8.626;2023-07-20T14:17:06;29.00;30.00
10644;DHT22;5370;50.132;8.626;2023-07-20T14:19:32;29.00;30.10
10644;DHT22;5370;50.132;8.626;2023-07-20T14:21:58;29.00;30.40
10644;DHT22;5370;50.132;8.626;2023-07-20T14:24:25;29.10;30.70
10644;DHT22;5370;50.132;8.626;2023-07-20T14:26:51;29.00;30.70
10644;DHT22;5370;50.132;8.626;2023-07-20T14:29:17;29.00;30.70
10644;DHT22;5370;50.132;8.626;2023-07-20T14:31:45;29.00;30.40
10644;DHT22;5370;50.132;8.626;2023-07-20T14:34:18;28.90;30.10
10644;DHT22;5370;50.132;8.626;2023-07-20T14:36:44;28.90;30.00
10644;DHT22;5370;50.132;8.626;2023-07-20T14:39:10;28.80;30.00
10644;DHT22;5370;50.132;8.626;2023-07-20T14:41:36;28.90;30.00
10644;DHT22;5370;50.132;8.626;2023-07-20T14:44:01;28.90;29.80
10644;DHT22;5370;50.132;8.626;2023-07-20T14:46:27;28.80;29.60
10644;DHT22;5370;50.132;8.626;2023-07-20T14:48:53;28.70;29.60
10644;DHT22;5370;50.132;8.626;2023-07-20T14:51:18;28.60;29.70
10644;DHT22;5370;50.132;8.626;2023-07-20T14:53:44;28.50;29.90
10644;DHT22;5370;50.132;8.626;2023-07-20T14:56:09;28.50;30.00
10644;DHT22;5370;50.132;8.626;2023-07-20T14:58:35;28.50;30.00
10644;DHT22;5370;50.132;8.626;2023-07-20T15:01:01;28.60;30.00
10644;DHT22;5370;50.132;8.626;2023-07-20T15:03:26;28.60;30.00
10644;DHT22;5370;50.132;8.626;2023-07-20T15:05:52;28.50;30.00
10644;DHT22;5370;50.132;8.626;2023-07-20T15:08:20;28.40;30.00
10644;DHT22;5370;50.132;8.626;2023-07-20T15:10:48;28.30;30.30
10644;DHT22;5370;50.132;8.626;2023-07-20T15:13:14;28.20;30.40
10644;DHT22;5370;50.132;8.626;2023-07-20T15:15:40;28.20;30.50
10644;DHT22;5370;50.132;8.626;2023-07-20T15:18:06;28.20;30.80
10644;DHT22;5370;50.132;8.626;2023-07-20T15:20:32;28.20;31.40
10644;DHT22;5370;50.132;8.626;2023-07-20T15:22:58;28.20;30.60
10644;DHT22;5370;50.132;8.626;2023-07-20T15:25:24;28.20;30.10
10644;DHT22;5370;50.132;8.626;2023-07-20T15:27:49;28.10;30.20
10644;DHT22;5370;50.132;8.626;2023-07-20T15:30:15;28.20;30.60
10644;DHT22;5370;50.132;8.626;2023-07-20T15:32:41;28.10;30.70
10644;DHT22;5370;50.132;8.626;2023-07-20T15:35:08;28.10;30.70
10644;DHT22;5370;50.132;8.626;2023-07-20T15:37:33;28.00;30.80
10644;DHT22;5370;50.132;8.626;2023-07-20T15:39:59;28.00;30.80
10644;DHT22;5370;50.132;8.626;2023-07-20T15:42:29;27.80;30.30
10644;DHT22;5370;50.132;8.626;2023-07-20T15:44:54;27.80;30.10
10644;DHT22;5370;50.132;8.626;2023-07-20T15:47:20;27.60;30.00
10644;DHT22;5370;50.132;8.626;2023-07-20T15:49:45;27.60;30.30
10644;DHT22;5370;50.132;8.626;2023-07-20T15:52:11;27.50;30.30
10644;DHT22;5370;50.132;8.626;2023-07-20T15:54:38;27.50;30.00
10644;DHT22;5370;50.132;8.626;2023-07-20T15:57:05;27.40;29.90